Time;durP1;ratioP1;P1;durP2;ratioP2;P2;SDS_P1;SDS_P2;PMS_P1;PMS_P2;Temp;Humidity;BMP_temperature;BMP_pressure;BME280_temperature;BME280_humidity;BME280_pressure;Samples;Min_cycle;Max_cycle;Signal;HPM_P1;HPM_P2
2022/05/25 00:00:07;;;;;;;2.63;1.75;;;;;;;;;;5042777;28;20076;-68
2022/05/25 00:02:36;;;;;;;2.42;1.63;;;;;;;;;;5050598;28;20062;-67
2022/05/25 00:05:05;;;;;;;2.53;1.67;;;;;;;;;;5051390;28;20049;-67
2022/05/25 00:07:34;;;;;;;3.40;1.70;;;;;;;;;;5046422;28;20467;-67
2022/05/25 00:10:02;;;;;;;3.88;1.52;;;;;;;;;;5048678;28;20518;-68
2022/05/25 00:12:31;;;;;;;2.80;1.77;;;;;;;;;;5050484;28;20352;-67
2022/05/25 00:15:07;;;;;;;2.42;1.80;;;;;;;;;;5049857;28;20559;-67
2022/05/25 00:17:36;;;;;;;3.28;2.00;;;;;;;;;;5040157;28;20061;-67
2022/05/25 00:20:04;;;;;;;3.22;1.90;;;;;;;;;;5050739;28;20369;-67
2022/05/25 00:22:40;;;;;;;2.72;1.73;;;;;;;;;;5050415;28;20076;-67
2022/05/25 00:25:09;;;;;;;2.00;1.58;;;;;;;;;;5040701;28;20089;-68
2022/05/25 00:27:37;;;;;;;3.13;1.83;;;;;;;;;;5048326;28;20077;-67
2022/05/25 00:30:08;;;;;;;2.88;1.80;;;;;;;;;;5051826;28;20484;-67
2022/05/25 00:32:37;;;;;;;2.63;2.00;;;;;;;;;;5048984;28;20065;-67
2022/05/25 00:35:06;;;;;;;1.80;1.35;;;;;;;;;;5045403;28;20124;-68
2022/05/25 00:37:34;;;;;;;2.42;1.88;;;;;;;;;;5046966;28;20057;-67
2022/05/25 00:40:03;;;;;;;2.50;1.75;;;;;;;;;;5045963;28;20447;-68
2022/05/25 00:42:31;;;;;;;3.08;1.80;;;;;;;;;;5046237;28;20049;-68
2022/05/25 00:45:00;;;;;;;2.35;1.60;;;;;;;;;;5048834;28;20559;-67
2022/05/25 00:47:29;;;;;;;4.82;1.75;;;;;;;;;;5045669;28;20133;-67
2022/05/25 00:49:58;;;;;;;2.97;2.00;;;;;;;;;;5048786;28;20049;-68
2022/05/25 00:52:28;;;;;;;2.72;1.63;;;;;;;;;;5046792;28;20044;-68
2022/05/25 00:55:00;;;;;;;3.30;1.80;;;;;;;;;;5049035;28;20500;-68
2022/05/25 00:57:31;;;;;;;2.95;2.03;;;;;;;;;;5044816;28;20055;-67
2022/05/25 01:00:04;;;;;;;2.63;1.80;;;;;;;;;;5049305;28;20128;-67
2022/05/25 01:02:35;;;;;;;2.28;1.70;;;;;;;;;;5048396;28;20048;-68
2022/05/25 01:05:04;;;;;;;2.70;1.98;;;;;;;;;;5050981;28;20451;-68
2022/05/25 01:07:41;;;;;;;3.92;2.22;;;;;;;;;;5042197;28;20053;-67
2022/05/25 01:10:15;;;;;;;2.97;2.15;;;;;;;;;;5048898;28;20073;-67
2022/05/25 01:12:52;;;;;;;3.83;2.10;;;;;;;;;;5047306;28;20048;-68
2022/05/25 01:15:25;;;;;;;10.65;2.05;;;;;;;;;;5050128;28;20045;-68
2022/05/25 01:18:02;;;;;;;4.43;1.85;;;;;;;;;;5045538;28;20556;-67
2022/05/25 01:20:32;;;;;;;2.85;1.80;;;;;;;;;;5050360;28;20136;-67
2022/05/25 01:23:19;;;;;;;4.63;1.85;;;;;;;;;;5046512;28;20577;-68
2022/05/25 01:26:01;;;;;;;3.60;1.83;;;;;;;;;;5037986;28;20045;-67
2022/05/25 01:28:41;;;;;;;3.65;1.80;;;;;;;;;;5046064;28;20049;-68
2022/05/25 01:31:13;;;;;;;2.35;1.67;;;;;;;;;;5046332;28;20083;-68
2022/05/25 01:33:43;;;;;;;5.38;1.77;;;;;;;;;;5046938;28;20053;-68
2022/05/25 01:36:14;;;;;;;3.42;2.17;;;;;;;;;;5048235;28;20049;-68
2022/05/25 01:38:43;;;;;;;3.90;1.77;;;;;;;;;;5045738;28;20068;-68
2022/05/25 01:41:14;;;;;;;2.25;1.58;;;;;;;;;;5042295;28;20080;-68
2022/05/25 01:43:44;;;;;;;3.83;1.75;;;;;;;;;;5047824;28;20127;-68
2022/05/25 01:46:15;;;;;;;3.45;1.95;;;;;;;;;;5048362;28;20080;-68
2022/05/25 01:48:45;;;;;;;4.75;1.90;;;;;;;;;;5041900;28;20076;-68
2022/05/25 01:51:16;;;;;;;3.20;2.22;;;;;;;;;;5047958;28;20049;-68
2022/05/25 01:53:46;;;;;;;2.95;1.90;;;;;;;;;;5042182;28;20080;-68
2022/05/25 01:56:16;;;;;;;2.28;1.60;;;;;;;;;;5047757;28;20053;-68
2022/05/25 01:58:46;;;;;;;2.92;1.80;;;;;;;;;;5042733;28;20084;-68
2022/05/25 02:01:16;;;;;;;2.30;1.88;;;;;;;;;;5047381;28;20049;-68
2022/05/25 02:06:41;;;;;;;3.38;2.22;;;;;;;;;;5044807;28;20046;-68
2022/05/25 02:09:20;;;;;;;4.20;2.08;;;;;;;;;;5045626;28;20087;-68
2022/05/25 02:11:50;;;;;;;4.18;1.90;;;;;;;;;;5048050;28;20684;-68
2022/05/25 02:14:26;;;;;;;4.38;2.30;;;;;;;;;;5048729;28;20136;-68
2022/05/25 02:17:02;;;;;;;3.63;1.90;;;;;;;;;;5046651;28;20079;-68
2022/05/25 02:19:36;;;;;;;2.63;1.92;;;;;;;;;;5013989;28;20572;-68
2022/05/25 02:22:06;;;;;;;3.17;1.92;;;;;;;;;;5023030;28;20143;-68
2022/05/25 02:24:43;;;;;;;3.08;1.98;;;;;;;;;;5025824;28;20128;-68
2022/05/25 02:27:14;;;;;;;2.45;1.80;;;;;;;;;;5020329;28;20038;-68
2022/05/25 02:29:44;;;;;;;2.35;1.75;;;;;;;;;;5018538;28;20077;-68
2022/05/25 02:32:16;;;;;;;7.45;1.98;;;;;;;;;;5025088;28;20143;-68
2022/05/25 02:34:46;;;;;;;2.65;1.80;;;;;;;;;;5022384;28;20152;-68
2022/05/25 02:37:15;;;;;;;2.80;1.90;;;;;;;;;;5025521;28;20274;-68
2022/05/25 02:39:43;;;;;;;4.95;1.90;;;;;;;;;;5022809;28;20084;-68
2022/05/25 02:42:14;;;;;;;3.08;1.92;;;;;;;;;;5025840;28;20038;-68
2022/05/25 02:44:42;;;;;;;2.58;1.80;;;;;;;;;;5023975;28;20124;-68
2022/05/25 02:47:11;;;;;;;6.53;2.10;;;;;;;;;;5026484;28;20048;-68
2022/05/25 02:49:41;;;;;;;2.45;2.08;;;;;;;;;;5024423;28;20049;-68
2022/05/25 02:52:10;;;;;;;4.13;1.85;;;;;;;;;;5048017;28;20512;-67
2022/05/25 02:54:39;;;;;;;4.30;2.13;;;;;;;;;;5048401;28;20481;-68
2022/05/25 02:57:08;;;;;;;1.77;1.42;;;;;;;;;;5046556;28;20475;-69
2022/05/25 02:59:36;;;;;;;3.67;2.30;;;;;;;;;;5045785;28;20064;-68
2022/05/25 03:02:05;;;;;;;4.40;1.48;;;;;;;;;;5043249;28;20041;-68
2022/05/25 03:04:34;;;;;;;4.80;1.50;;;;;;;;;;5047497;28;20076;-68
2022/05/25 03:07:04;;;;;;;7.32;2.03;;;;;;;;;;5044182;28;20076;-68
2022/05/25 03:09:32;;;;;;;3.47;2.00;;;;;;;;;;5046368;28;20568;-69
2022/05/25 03:12:02;;;;;;;3.13;1.50;;;;;;;;;;5046657;28;20068;-68
2022/05/25 03:14:31;;;;;;;3.95;2.17;;;;;;;;;;5046799;28;20133;-68
2022/05/25 03:17:04;;;;;;;5.63;1.98;;;;;;;;;;5047283;28;20128;-68
2022/05/25 03:19:33;;;;;;;19.45;2.63;;;;;;;;;;5051029;28;20087;-68
2022/05/25 03:22:01;;;;;;;6.43;1.90;;;;;;;;;;5049045;28;20603;-68
2022/05/25 03:24:31;;;;;;;4.03;1.83;;;;;;;;;;5049897;28;20077;-68
2022/05/25 03:26:59;;;;;;;2.33;1.77;;;;;;;;;;5046497;28;20132;-68
2022/05/25 03:29:29;;;;;;;3.10;1.70;;;;;;;;;;5051696;28;20057;-68
2022/05/25 03:31:57;;;;;;;8.93;2.03;;;;;;;;;;5051551;28;20138;-68
2022/05/25 03:34:26;;;;;;;3.28;1.75;;;;;;;;;;5051188;28;20076;-68
2022/05/25 03:36:55;;;;;;;7.47;2.40;;;;;;;;;;5048717;28;20076;-68
2022/05/25 03:39:24;;;;;;;3.67;2.22;;;;;;;;;;5050092;28;20049;-68
2022/05/25 03:41:55;;;;;;;2.50;2.00;;;;;;;;;;5049242;28;20127;-68
2022/05/25 03:44:24;;;;;;;4.75;2.40;;;;;;;;;;5050879;28;20682;-68
2022/05/25 03:46:52;;;;;;;3.08;1.88;;;;;;;;;;5046559;28;20045;-68
2022/05/25 03:49:20;;;;;;;3.97;1.92;;;;;;;;;;5050678;28;20484;-68
2022/05/25 03:51:49;;;;;;;3.10;1.98;;;;;;;;;;5051100;28;20083;-69
2022/05/25 03:54:17;;;;;;;3.53;1.98;;;;;;;;;;5050142;28;20087;-69
2022/05/25 03:56:45;;;;;;;3.47;2.13;;;;;;;;;;5048004;28;20136;-69
2022/05/25 03:59:15;;;;;;;4.63;2.13;;;;;;;;;;5047523;28;20136;-69
2022/05/25 04:01:43;;;;;;;6.82;2.50;;;;;;;;;;5047789;28;20045;-69
2022/05/25 04:04:12;;;;;;;4.72;2.38;;;;;;;;;;5049722;28;20086;-69
2022/05/25 04:06:40;;;;;;;6.88;2.80;;;;;;;;;;5048047;28;20773;-69
2022/05/25 04:09:10;;;;;;;6.25;3.15;;;;;;;;;;5046314;28;20048;-69
2022/05/25 04:11:39;;;;;;;6.25;2.40;;;;;;;;;;5050410;28;20495;-69
2022/05/25 04:14:07;;;;;;;3.25;2.13;;;;;;;;;;5048786;28;20144;-69
2022/05/25 04:16:37;;;;;;;4.60;2.40;;;;;;;;;;5048697;28;20056;-69
2022/05/25 04:19:05;;;;;;;3.88;2.53;;;;;;;;;;5047106;28;20179;-70
2022/05/25 04:21:34;;;;;;;2.53;1.75;;;;;;;;;;5050132;28;20082;-69
2022/05/25 04:24:02;;;;;;;4.10;2.60;;;;;;;;;;5050035;28;20403;-69
2022/05/25 04:26:31;;;;;;;2.85;2.20;;;;;;;;;;5051343;28;20057;-69
2022/05/25 04:29:00;;;;;;;5.25;2.05;;;;;;;;;;5049816;28;20049;-69
2022/05/25 04:31:28;;;;;;;5.78;2.45;;;;;;;;;;5047603;28;20068;-70
2022/05/25 04:33:58;;;;;;;5.60;1.90;;;;;;;;;;5049622;28;20452;-69
2022/05/25 04:36:26;;;;;;;3.58;1.80;;;;;;;;;;5049333;28;20084;-69
2022/05/25 04:38:54;;;;;;;5.50;2.17;;;;;;;;;;5042914;28;20148;-69
2022/05/25 04:41:23;;;;;;;3.60;2.38;;;;;;;;;;5050474;28;20132;-69
2022/05/25 04:43:51;;;;;;;2.60;1.58;;;;;;;;;;5045841;28;20462;-69
2022/05/25 04:46:19;;;;;;;3.67;2.03;;;;;;;;;;5046850;28;20045;-69
2022/05/25 04:48:48;;;;;;;3.20;1.48;;;;;;;;;;5041465;28;20067;-69
2022/05/25 04:51:17;;;;;;;2.53;1.63;;;;;;;;;;5050001;28;20135;-69
2022/05/25 04:53:46;;;;;;;2.55;1.80;;;;;;;;;;5047628;28;20544;-69
2022/05/25 04:59:00;;;;;;;3.70;2.22;;;;;;;;;;5048720;28;20076;-69
2022/05/25 05:01:30;;;;;;;3.75;1.83;;;;;;;;;;5048180;28;20084;-69
2022/05/25 05:04:00;;;;;;;3.08;1.92;;;;;;;;;;5044728;28;20045;-69
2022/05/25 05:06:29;;;;;;;3.63;1.92;;;;;;;;;;5046078;28;20052;-70
2022/05/25 05:08:58;;;;;;;3.85;2.10;;;;;;;;;;5048888;28;20546;-69
2022/05/25 05:11:26;;;;;;;3.13;2.20;;;;;;;;;;5044966;28;20476;-69
2022/05/25 05:13:54;;;;;;;4.95;1.65;;;;;;;;;;5041141;28;20563;-69
2022/05/25 05:16:23;;;;;;;4.13;1.35;;;;;;;;;;5047849;28;20103;-69
2022/05/25 05:18:51;;;;;;;2.25;1.50;;;;;;;;;;5048485;28;20079;-69
2022/05/25 05:21:19;;;;;;;2.17;1.45;;;;;;;;;;5041735;28;20557;-69
2022/05/25 05:23:49;;;;;;;7.45;2.15;;;;;;;;;;5043216;28;20088;-69
2022/05/25 05:26:17;;;;;;;2.92;2.05;;;;;;;;;;5048035;28;20444;-70
2022/05/25 05:28:46;;;;;;;2.63;1.30;;;;;;;;;;5044657;28;20203;-69
2022/05/25 05:31:15;;;;;;;1.90;1.38;;;;;;;;;;5045273;28;20068;-69
2022/05/25 05:33:43;;;;;;;2.58;1.63;;;;;;;;;;5049524;28;20069;-69
2022/05/25 05:36:14;;;;;;;2.67;1.30;;;;;;;;;;5049380;28;20469;-69
2022/05/25 05:38:45;;;;;;;4.60;1.48;;;;;;;;;;5061291;28;20075;-69
2022/05/25 05:41:15;;;;;;;3.78;1.90;;;;;;;;;;5037423;28;20049;-69
2022/05/25 05:43:44;;;;;;;6.35;1.88;;;;;;;;;;5045372;28;20556;-69
2022/05/25 05:46:13;;;;;;;2.47;1.40;;;;;;;;;;5049732;28;20072;-69
2022/05/25 05:48:42;;;;;;;3.85;1.70;;;;;;;;;;5048339;28;20585;-69
2022/05/25 05:51:11;;;;;;;3.00;1.73;;;;;;;;;;5049364;28;20083;-69
2022/05/25 05:53:41;;;;;;;3.15;1.75;;;;;;;;;;5048624;28;20132;-69
2022/05/25 05:56:09;;;;;;;3.13;1.88;;;;;;;;;;5046483;28;20054;-70
2022/05/25 05:58:39;;;;;;;4.78;2.50;;;;;;;;;;5047375;28;20083;-69
2022/05/25 06:01:08;;;;;;;2.15;1.38;;;;;;;;;;5047417;28;20508;-70
2022/05/25 06:03:37;;;;;;;2.97;1.52;;;;;;;;;;5049489;28;20049;-69
2022/05/25 06:06:08;;;;;;;2.72;1.80;;;;;;;;;;5045054;28;20415;-69
2022/05/25 06:08:37;;;;;;;2.70;1.42;;;;;;;;;;5047440;28;20057;-69
2022/05/25 06:11:08;;;;;;;2.03;0.88;;;;;;;;;;5048875;28;20103;-69
2022/05/25 06:13:36;;;;;;;1.90;1.10;;;;;;;;;;5042836;28;20124;-71
2022/05/25 06:21:57;;;;;;;1.30;0.98;;;;;;;;;;4996800;28;20081;-70
2022/05/25 06:24:25;;;;;;;3.17;1.80;;;;;;;;;;5009945;28;20130;-69
2022/05/25 06:26:54;;;;;;;0.68;0.68;;;;;;;;;;5026804;28;20080;-69
2022/05/25 06:29:23;;;;;;;1.23;0.95;;;;;;;;;;5052812;28;20541;-70
2022/05/25 06:31:52;;;;;;;0.98;0.63;;;;;;;;;;5049347;28;20095;-69
2022/05/25 06:34:21;;;;;;;0.73;0.50;;;;;;;;;;5048873;28;20057;-69
2022/05/25 06:36:49;;;;;;;1.10;0.57;;;;;;;;;;5048362;28;20045;-69
2022/05/25 06:39:18;;;;;;;1.08;0.98;;;;;;;;;;5046502;28;20111;-69
2022/05/25 06:41:47;;;;;;;0.77;0.30;;;;;;;;;;5047847;28;20044;-69
2022/05/25 06:44:17;;;;;;;1.35;0.60;;;;;;;;;;5048648;28;20049;-69
2022/05/25 06:46:45;;;;;;;0.75;0.75;;;;;;;;;;5047822;28;20045;-70
2022/05/25 06:49:15;;;;;;;0.93;0.93;;;;;;;;;;5042402;28;20076;-69
2022/05/25 06:51:44;;;;;;;0.73;0.57;;;;;;;;;;5053963;28;20106;-69
2022/05/25 06:54:13;;;;;;;1.05;0.30;;;;;;;;;;5052580;28;20631;-69
2022/05/25 06:56:42;;;;;;;0.38;0.38;;;;;;;;;;5052738;28;20480;-69
2022/05/25 06:59:11;;;;;;;0.20;0.20;;;;;;;;;;5048800;28;20049;-69
2022/05/25 07:01:42;;;;;;;0.30;0.30;;;;;;;;;;5051728;28;20048;-69
2022/05/25 07:04:11;;;;;;;0.28;0.28;;;;;;;;;;5050176;28;20112;-69
2022/05/25 07:06:41;;;;;;;0.85;0.50;;;;;;;;;;5045328;28;20049;-70
2022/05/25 07:09:12;;;;;;;0.30;0.28;;;;;;;;;;5051985;28;20378;-70
2022/05/25 07:11:42;;;;;;;0.28;0.28;;;;;;;;;;5050640;28;20049;-69
2022/05/25 07:14:11;;;;;;;0.60;0.60;;;;;;;;;;5051744;28;20045;-69
2022/05/25 07:16:39;;;;;;;1.55;0.32;;;;;;;;;;5050181;28;20102;-69
2022/05/25 07:19:08;;;;;;;0.50;0.50;;;;;;;;;;5049563;28;20416;-69
2022/05/25 07:21:37;;;;;;;0.38;0.30;;;;;;;;;;5042354;28;20135;-69
2022/05/25 07:24:07;;;;;;;0.47;0.47;;;;;;;;;;5043292;28;20056;-69
2022/05/25 07:26:36;;;;;;;0.20;0.20;;;;;;;;;;5047263;28;20052;-69
2022/05/25 07:29:05;;;;;;;0.13;0.13;;;;;;;;;;5049902;28;20045;-69
2022/05/25 07:31:39;;;;;;;0.30;0.30;;;;;;;;;;5053161;28;20049;-69
2022/05/25 07:34:09;;;;;;;0.50;0.50;;;;;;;;;;5045230;28;20060;-69
2022/05/25 07:36:38;;;;;;;0.65;0.20;;;;;;;;;;5052259;28;20073;-69
2022/05/25 07:39:11;;;;;;;0.38;0.32;;;;;;;;;;5047617;28;20049;-69
2022/05/25 07:41:42;;;;;;;0.10;0.10;;;;;;;;;;5048904;28;20510;-69
2022/05/25 07:44:12;;;;;;;0.25;0.25;;;;;;;;;;5050135;28;20140;-70
2022/05/25 07:46:41;;;;;;;3.17;1.30;;;;;;;;;;5042042;28;20060;-69
2022/05/25 07:49:09;;;;;;;0.20;0.15;;;;;;;;;;5051370;28;20489;-69
2022/05/25 07:51:38;;;;;;;0.43;0.15;;;;;;;;;;5046028;28;20061;-69
2022/05/25 07:54:07;;;;;;;0.20;0.20;;;;;;;;;;5043385;28;20055;-69
2022/05/25 07:56:37;;;;;;;0.10;0.10;;;;;;;;;;5049379;28;20049;-69
2022/05/25 07:59:07;;;;;;;0.32;0.17;;;;;;;;;;5050696;28;20566;-69
2022/05/25 08:07:21;;;;;;;3.85;0.47;;;;;;;;;;5004426;28;20159;-70
2022/05/25 08:09:51;;;;;;;0.32;0.32;;;;;;;;;;5047085;28;20135;-69
2022/05/25 08:12:22;;;;;;;0.38;0.38;;;;;;;;;;5044972;28;20053;-69
2022/05/25 08:14:51;;;;;;;0.25;0.25;;;;;;;;;;5045691;28;20447;-70
2022/05/25 08:17:20;;;;;;;0.10;0.10;;;;;;;;;;5046692;28;20049;-70
2022/05/25 08:19:48;;;;;;;0.10;0.10;;;;;;;;;;5049524;28;20092;-69
2022/05/25 08:22:17;;;;;;;0.00;0.00;;;;;;;;;;5049344;28;20049;-69
2022/05/25 08:24:46;;;;;;;0.00;0.00;;;;;;;;;;5049933;28;20364;-69
2022/05/25 08:27:15;;;;;;;0.08;0.08;;;;;;;;;;5047844;28;20160;-69
2022/05/25 08:29:45;;;;;;;0.00;0.00;;;;;;;;;;5044074;28;20103;-69
2022/05/25 08:32:14;;;;;;;0.10;0.10;;;;;;;;;;5047690;28;20048;-69
2022/05/25 08:34:43;;;;;;;0.25;0.25;;;;;;;;;;5050329;28;20095;-69
2022/05/25 08:37:12;;;;;;;0.20;0.20;;;;;;;;;;5048811;28;20052;-69
2022/05/25 08:39:41;;;;;;;0.20;0.20;;;;;;;;;;5049848;28;20060;-69
2022/05/25 08:42:13;;;;;;;0.20;0.20;;;;;;;;;;5050470;28;20045;-69
2022/05/25 08:44:42;;;;;;;0.15;0.03;;;;;;;;;;5047512;28;20041;-69
2022/05/25 08:47:13;;;;;;;0.13;0.13;;;;;;;;;;5039447;28;20511;-69
2022/05/25 08:49:43;;;;;;;0.08;0.08;;;;;;;;;;5050150;28;20056;-69
2022/05/25 08:52:20;;;;;;;0.00;0.00;;;;;;;;;;5046084;28;20045;-69
2022/05/25 08:54:49;;;;;;;0.00;0.00;;;;;;;;;;5048026;28;20041;-69
2022/05/25 08:57:25;;;;;;;0.17;0.17;;;;;;;;;;5050407;28;20476;-69
2022/05/25 08:59:57;;;;;;;0.17;0.17;;;;;;;;;;5050230;28;20059;-69
2022/05/25 09:02:30;;;;;;;0.13;0.13;;;;;;;;;;5044096;28;20084;-68
2022/05/25 09:05:03;;;;;;;1.95;0.30;;;;;;;;;;5051817;28;20496;-68
2022/05/25 09:07:39;;;;;;;0.00;0.00;;;;;;;;;;5051109;28;20672;-68
2022/05/25 09:10:08;;;;;;;0.17;0.17;;;;;;;;;;5034309;28;20404;-68
2022/05/25 09:12:39;;;;;;;0.55;0.20;;;;;;;;;;5045470;28;20049;-68
2022/05/25 09:15:09;;;;;;;0.10;0.10;;;;;;;;;;5041774;28;20459;-68
2022/05/25 09:17:41;;;;;;;0.52;0.38;;;;;;;;;;5048406;28;20049;-68
2022/05/25 09:20:13;;;;;;;0.20;0.20;;;;;;;;;;5047637;28;20060;-68
2022/05/25 09:22:42;;;;;;;0.32;0.32;;;;;;;;;;5045187;28;21574;-68
2022/05/25 09:25:12;;;;;;;0.00;0.00;;;;;;;;;;5049174;28;20067;-69
2022/05/25 09:27:42;;;;;;;0.20;0.20;;;;;;;;;;5041034;28;20547;-69
2022/05/25 09:30:11;;;;;;;0.15;0.10;;;;;;;;;;5043542;28;20080;-69
2022/05/25 09:32:46;;;;;;;0.03;0.03;;;;;;;;;;5048231;28;20037;-68
2022/05/25 09:35:16;;;;;;;0.45;0.15;;;;;;;;;;5050565;28;20051;-68
2022/05/25 09:37:48;;;;;;;0.40;0.40;;;;;;;;;;5041693;28;20048;-68
2022/05/25 09:40:20;;;;;;;0.00;0.00;;;;;;;;;;5044247;28;20071;-69
2022/05/25 09:42:53;;;;;;;0.50;0.20;;;;;;;;;;5045257;28;20041;-68
2022/05/25 09:45:22;;;;;;;0.40;0.30;;;;;;;;;;5048919;28;20052;-69
2022/05/25 09:47:53;;;;;;;0.15;0.00;;;;;;;;;;5048474;28;20045;-69
2022/05/25 09:50:31;;;;;;;0.25;0.05;;;;;;;;;;5047773;28;20078;-70
2022/05/25 09:53:03;;;;;;;0.50;0.50;;;;;;;;;;5050243;28;20086;-69
2022/05/25 09:55:34;;;;;;;0.50;0.30;;;;;;;;;;5044952;28;20045;-70
2022/05/25 09:58:04;;;;;;;0.57;0.32;;;;;;;;;;5050346;28;20044;-70
2022/05/25 10:00:40;;;;;;;0.30;0.30;;;;;;;;;;5047587;28;20056;-69
2022/05/25 10:03:11;;;;;;;0.08;0.08;;;;;;;;;;5042908;28;20132;-69
2022/05/25 10:05:53;;;;;;;0.30;0.30;;;;;;;;;;5046258;28;20041;-69
2022/05/25 10:08:36;;;;;;;1.48;0.30;;;;;;;;;;5043851;28;20051;-71
2022/05/25 10:11:27;;;;;;;0.10;0.10;;;;;;;;;;5047389;28;20625;-71
2022/05/25 10:13:57;;;;;;;1.55;0.20;;;;;;;;;;5040794;28;20060;-71
2022/05/25 10:16:27;;;;;;;0.43;0.40;;;;;;;;;;5048477;28;20131;-71
2022/05/25 10:18:57;;;;;;;0.32;0.20;;;;;;;;;;5048579;28;20146;-71
2022/05/25 10:21:28;;;;;;;0.10;0.10;;;;;;;;;;5043110;28;20597;-72
2022/05/25 10:23:57;;;;;;;0.00;0.00;;;;;;;;;;5044994;28;20072;-73
2022/05/25 10:26:31;;;;;;;0.05;0.05;;;;;;;;;;5048818;28;20151;-70
2022/05/25 10:29:03;;;;;;;0.10;0.10;;;;;;;;;;5044096;28;20052;-70
2022/05/25 10:37:17;;;;;;;0.10;0.10;;;;;;;;;;5051022;28;20049;-69
2022/05/25 10:39:47;;;;;;;0.05;0.05;;;;;;;;;;5050229;28;20092;-69
2022/05/25 10:42:19;;;;;;;2.05;0.10;;;;;;;;;;5052373;28;20140;-70
2022/05/25 10:44:51;;;;;;;0.45;0.25;;;;;;;;;;5044369;28;20052;-71
2022/05/25 10:47:27;;;;;;;0.28;0.20;;;;;;;;;;5046922;28;20571;-69
2022/05/25 10:49:57;;;;;;;0.28;0.28;;;;;;;;;;5048778;28;20049;-69
2022/05/25 10:52:32;;;;;;;0.00;0.00;;;;;;;;;;5049226;28;20561;-69
2022/05/25 10:55:00;;;;;;;0.03;0.03;;;;;;;;;;5050434;28;20279;-69
2022/05/25 10:57:53;;;;;;;0.43;0.20;;;;;;;;;;5052275;28;20045;-69
2022/05/25 11:00:23;;;;;;;0.10;0.10;;;;;;;;;;5051594;28;20060;-69
2022/05/25 11:03:00;;;;;;;0.00;0.00;;;;;;;;;;5041710;28;20101;-69
2022/05/25 11:05:34;;;;;;;0.95;0.25;;;;;;;;;;5045682;28;21573;-70
2022/05/25 11:08:07;;;;;;;0.10;0.10;;;;;;;;;;5047966;28;20173;-69
2022/05/25 11:10:40;;;;;;;0.00;0.00;;;;;;;;;;5049744;28;20056;-69
2022/05/25 11:13:19;;;;;;;1.40;0.65;;;;;;;;;;5041531;28;20064;-70
2022/05/25 11:15:54;;;;;;;0.08;0.03;;;;;;;;;;5046200;28;20135;-69
2022/05/25 11:18:33;;;;;;;0.00;0.00;;;;;;;;;;5047320;28;20649;-69
2022/05/25 11:21:08;;;;;;;0.08;0.08;;;;;;;;;;5039869;28;20056;-69
2022/05/25 11:23:41;;;;;;;0.10;0.10;;;;;;;;;;5041555;28;20048;-69
2022/05/25 11:26:30;;;;;;;0.15;0.10;;;;;;;;;;5043470;28;20050;-69
2022/05/25 11:29:13;;;;;;;0.10;0.10;;;;;;;;;;5041315;28;20404;-69
2022/05/25 11:31:46;;;;;;;0.00;0.00;;;;;;;;;;5047360;28;20492;-70
2022/05/25 11:34:20;;;;;;;0.47;0.22;;;;;;;;;;5047729;28;20106;-70
2022/05/25 11:37:12;;;;;;;0.03;0.03;;;;;;;;;;5036921;28;20085;-71
2022/05/25 11:39:45;;;;;;;0.10;0.10;;;;;;;;;;5040826;28;20041;-70
2022/05/25 11:42:21;;;;;;;0.03;0.03;;;;;;;;;;5047956;28;20078;-70
2022/05/25 11:44:56;;;;;;;0.20;0.20;;;;;;;;;;5045171;28;20049;-69
2022/05/25 11:47:36;;;;;;;0.13;0.13;;;;;;;;;;5048042;28;20106;-71
2022/05/25 11:50:11;;;;;;;0.00;0.00;;;;;;;;;;5039554;28;20061;-70
2022/05/25 11:52:53;;;;;;;0.70;0.43;;;;;;;;;;5046336;28;20091;-70
2022/05/25 11:55:23;;;;;;;0.20;0.20;;;;;;;;;;5044753;28;20147;-73
2022/05/25 11:57:56;;;;;;;0.90;0.25;;;;;;;;;;5045873;28;20500;-71
2022/05/25 12:00:39;;;;;;;0.00;0.00;;;;;;;;;;5038481;28;20049;-70
2022/05/25 12:03:23;;;;;;;0.00;0.00;;;;;;;;;;5040111;28;20053;-70
2022/05/25 12:05:57;;;;;;;0.00;0.00;;;;;;;;;;5043576;28;20560;-71
2022/05/25 12:08:35;;;;;;;0.10;0.10;;;;;;;;;;5039960;28;20140;-72
2022/05/25 12:11:17;;;;;;;0.00;0.00;;;;;;;;;;5040965;28;20076;-69
2022/05/25 12:13:49;;;;;;;0.03;0.03;;;;;;;;;;5041400;28;20845;-69
2022/05/25 12:16:21;;;;;;;0.00;0.00;;;;;;;;;;5039846;28;20347;-69
2022/05/25 12:18:54;;;;;;;0.00;0.00;;;;;;;;;;5035514;28;20044;-68
2022/05/25 12:21:24;;;;;;;0.17;0.17;;;;;;;;;;5038731;28;20095;-69
2022/05/25 12:23:57;;;;;;;0.10;0.10;;;;;;;;;;5047816;28;20103;-68
2022/05/25 12:26:27;;;;;;;0.25;0.00;;;;;;;;;;5046862;28;20052;-69
2022/05/25 12:29:03;;;;;;;0.13;0.13;;;;;;;;;;5038839;28;20111;-70
2022/05/25 12:31:33;;;;;;;0.73;0.35;;;;;;;;;;5046375;28;20040;-69
2022/05/25 12:34:02;;;;;;;0.10;0.10;;;;;;;;;;5037736;28;20160;-69
2022/05/25 12:36:32;;;;;;;0.00;0.00;;;;;;;;;;5043818;28;20655;-69
2022/05/25 12:39:02;;;;;;;0.10;0.10;;;;;;;;;;5046237;28;20063;-68
2022/05/25 12:41:32;;;;;;;0.10;0.10;;;;;;;;;;5045664;28;20110;-69
2022/05/25 12:44:03;;;;;;;0.10;0.00;;;;;;;;;;5043362;28;20055;-69
2022/05/25 12:49:45;;;;;;;2.17;0.28;;;;;;;;;;5026508;28;20140;-69
2022/05/25 12:52:32;;;;;;;0.10;0.10;;;;;;;;;;5047640;28;20071;-69
2022/05/25 12:55:04;;;;;;;0.20;0.20;;;;;;;;;;5051456;28;20048;-69
2022/05/25 12:57:38;;;;;;;0.10;0.10;;;;;;;;;;5045885;28;20061;-70
2022/05/25 13:00:15;;;;;;;0.05;0.05;;;;;;;;;;5050604;28;20048;-69
2022/05/25 13:02:45;;;;;;;0.00;0.00;;;;;;;;;;5038963;28;20044;-71
2022/05/25 13:05:45;;;;;;;0.10;0.10;;;;;;;;;;5049729;28;20048;-72
2022/05/25 13:08:45;;;;;;;0.10;0.10;;;;;;;;;;5043755;28;20503;-69
2022/05/25 13:11:29;;;;;;;0.05;0.05;;;;;;;;;;5048179;28;20049;-69
2022/05/25 13:13:58;;;;;;;0.30;0.30;;;;;;;;;;5046939;28;20068;-70
2022/05/25 13:16:45;;;;;;;0.10;0.10;;;;;;;;;;5043639;28;20438;-71
2022/05/25 13:19:15;;;;;;;0.10;0.10;;;;;;;;;;5044650;28;20049;-68
2022/05/25 13:21:44;;;;;;;1.48;1.00;;;;;;;;;;5048850;28;20131;-69
2022/05/25 13:24:34;;;;;;;0.20;0.20;;;;;;;;;;5046772;28;20459;-68
2022/05/25 13:27:20;;;;;;;0.40;0.20;;;;;;;;;;5041988;28;20067;-68
2022/05/25 13:29:57;;;;;;;0.10;0.10;;;;;;;;;;5014192;28;20068;-69
2022/05/25 13:32:34;;;;;;;0.10;0.10;;;;;;;;;;5047487;28;20041;-68
2022/05/25 13:35:05;;;;;;;0.32;0.10;;;;;;;;;;5047435;28;20422;-68
2022/05/25 13:37:33;;;;;;;0.10;0.10;;;;;;;;;;5047554;28;20130;-69
2022/05/25 13:40:02;;;;;;;0.22;0.10;;;;;;;;;;5049174;28;20068;-68
2022/05/25 13:42:30;;;;;;;0.10;0.10;;;;;;;;;;5048025;28;20127;-68
2022/05/25 13:45:02;;;;;;;0.47;0.47;;;;;;;;;;5043720;28;20172;-68
2022/05/25 13:47:30;;;;;;;0.10;0.10;;;;;;;;;;5047250;28;20383;-68
2022/05/25 13:50:00;;;;;;;0.43;0.13;;;;;;;;;;5049315;28;20057;-68
2022/05/25 13:52:31;;;;;;;0.10;0.10;;;;;;;;;;5044075;28;20385;-68
2022/05/25 13:55:02;;;;;;;0.38;0.38;;;;;;;;;;5050170;28;20056;-68
2022/05/25 13:57:33;;;;;;;0.00;0.00;;;;;;;;;;5048150;28;20057;-68
2022/05/25 14:00:12;;;;;;;0.00;0.00;;;;;;;;;;5039496;28;20052;-68
2022/05/25 14:02:44;;;;;;;0.10;0.10;;;;;;;;;;5046263;28;20056;-69
2022/05/25 14:05:36;;;;;;;0.30;0.10;;;;;;;;;;5047399;28;20048;-69
2022/05/25 14:08:08;;;;;;;0.10;0.10;;;;;;;;;;5045410;28;20136;-71
2022/05/25 14:10:55;;;;;;;0.10;0.10;;;;;;;;;;5043698;28;20053;-71
2022/05/25 14:13:25;;;;;;;0.10;0.10;;;;;;;;;;5048745;28;20087;-69
2022/05/25 14:15:59;;;;;;;0.10;0.10;;;;;;;;;;5047455;28;20277;-69
2022/05/25 14:18:28;;;;;;;0.03;0.03;;;;;;;;;;5041682;28;20114;-70
2022/05/25 14:20:57;;;;;;;0.10;0.10;;;;;;;;;;5045870;28;20049;-73
2022/05/25 14:23:29;;;;;;;0.15;0.08;;;;;;;;;;5045153;28;20130;-69
2022/05/25 14:25:59;;;;;;;0.50;0.28;;;;;;;;;;5045910;28;20492;-70
2022/05/25 14:28:30;;;;;;;0.10;0.10;;;;;;;;;;5042152;28;20048;-69
2022/05/25 14:31:00;;;;;;;0.00;0.00;;;;;;;;;;5041952;28;20060;-71
2022/05/25 14:33:29;;;;;;;0.30;0.20;;;;;;;;;;5032404;28;20053;-70
2022/05/25 14:36:00;;;;;;;0.10;0.10;;;;;;;;;;5044518;28;20049;-70
2022/05/25 14:38:32;;;;;;;0.00;0.00;;;;;;;;;;5045551;28;20463;-70
2022/05/25 14:41:23;;;;;;;0.10;0.10;;;;;;;;;;5048049;28;20466;-70
2022/05/25 14:43:52;;;;;;;0.35;0.15;;;;;;;;;;5046936;28;20075;-69
2022/05/25 14:46:23;;;;;;;0.00;0.00;;;;;;;;;;5043348;28;20060;-69
2022/05/25 14:48:54;;;;;;;0.10;0.10;;;;;;;;;;5042213;28;20498;-70
2022/05/25 14:51:24;;;;;;;0.30;0.20;;;;;;;;;;5046248;28;20135;-70
2022/05/25 14:53:54;;;;;;;0.43;0.20;;;;;;;;;;5047666;28;20053;-70
2022/05/25 14:56:26;;;;;;;0.10;0.10;;;;;;;;;;5048495;28;20048;-70
2022/05/25 14:58:55;;;;;;;0.15;0.15;;;;;;;;;;5040168;28;20048;-71
2022/05/25 15:01:28;;;;;;;0.10;0.10;;;;;;;;;;5043769;28;20761;-71
2022/05/25 15:04:02;;;;;;;0.00;0.00;;;;;;;;;;5047013;28;20049;-70
2022/05/25 15:06:52;;;;;;;0.22;0.20;;;;;;;;;;5037955;28;20057;-70
2022/05/25 15:09:24;;;;;;;0.20;0.10;;;;;;;;;;5040712;28;20053;-71
2022/05/25 15:12:02;;;;;;;0.10;0.10;;;;;;;;;;5048883;28;20488;-68
2022/05/25 15:20:13;;;;;;;0.70;0.20;;;;;;;;;;5040379;28;20531;-69
2022/05/25 15:22:43;;;;;;;0.00;0.00;;;;;;;;;;5046960;28;20440;-69
2022/05/25 15:25:33;;;;;;;0.10;0.10;;;;;;;;;;5054026;28;20055;-68
2022/05/25 15:28:05;;;;;;;0.10;0.10;;;;;;;;;;5047749;28;20045;-70
2022/05/25 15:30:42;;;;;;;0.05;0.05;;;;;;;;;;5041518;28;20045;-69
2022/05/25 15:33:12;;;;;;;0.13;0.13;;;;;;;;;;5047922;28;20846;-70
2022/05/25 15:35:41;;;;;;;0.20;0.10;;;;;;;;;;5045355;28;20135;-69
2022/05/25 15:38:11;;;;;;;0.10;0.10;;;;;;;;;;5051196;28;20477;-68
2022/05/25 15:40:41;;;;;;;0.00;0.00;;;;;;;;;;5049253;28;20147;-70